Fayette, Missouri
Current Conditions -  °F | °C
As of 10:15 AM on Sunday 25 Jan 2015 (Local Time) from KVER Reporting Station
Moderate Rain Moderate Rain  
Wind Chill: 35°   Ceiling: 1000
Heat Index: 42°   Visibility: 2.5mi
Dew Point: 41°   Wind: 10mph
Humidity: 97%   Direction: 280°W
Pressure: 29.64"   Gusts: 22mph
Location:  39.15°N, 92.68°W
Report Text: KVER 251615Z AUTO 28009G19KT 2 1/2SM RA OVC010 05/05 A2964 RMK AO2 T00530048
Loading
Personal Weather Stations






























Interactive Weather Map New forecast layout! Learn more

10-Day Weather Forecast

Advertisements
Track Severe Weather on mobile